General Aviation Weather

Text Reports

Enter one or more of the following location identifiers separated by a space:

Zip Code, Four-Character ICAO or Three-Character IATA airport codes.

METAR - Aviation Routine Weather Report
KPYX - Perryton, Texas
Updated at 5:35 AM GMT on January 30, 2015 (11:35 PM CST):
METAR KPYX 300535Z AUTO 09003KT 10SM 02/M05 A3051 RMK AO2 T00171047
TAF - Terminal Area Forecast
KPYX - Perryton, Texas
Updated at 5:35 AM GMT on January 30, 2015 (11:35 PM CST):
No TAF is currently available for this location.
Decoded:
No decoded TAF is available.
PIREP - Pilot Weather Report
KPYX - Perryton, Texas
Updated at 5:35 AM GMT on January 30, 2015 (11:35 PM CST):
No PIREP is currently available for this location.
AIRMET - Airmens Meteorological Information
KPYX - Perryton, Texas
Updated at 5:35 AM GMT on January 30, 2015 (11:35 PM CST):
No AIRMET is currently available for this location.
SIGMET - Significant Meteorological Information
KPYX - Perryton, Texas
Updated at 5:35 AM GMT on January 30, 2015 (11:35 PM CST):
No SIGMET is currently available for this location.
NOTAM - Notice to Airmen
KPYX - Perryton, Texas
Updated at 5:35 AM GMT on January 30, 2015 (11:35 PM CST):
No NOTAM is currently available for this location.
Forecast Area
KPYX - Perryton, Texas
Updated at 5:35 AM GMT on January 30, 2015 (11:35 PM CST):
No NOTAM is currently available for this location.
Aviation Weather Maps